createdAt,value
2022-11-24T00:00:55.698Z,11.73
2022-11-24T00:03:24.117Z,10.10
2022-11-24T00:05:52.499Z,9.52
2022-11-24T00:08:20.951Z,12.70
2022-11-24T00:10:49.288Z,11.00
2022-11-24T00:13:17.577Z,9.05
2022-11-24T00:15:47.248Z,11.98
2022-11-24T00:18:15.566Z,18.55
2022-11-24T00:20:43.870Z,14.07
2022-11-24T00:23:12.161Z,19.15
2022-11-24T00:25:40.451Z,11.50
2022-11-24T00:28:08.753Z,14.30
2022-11-24T00:30:37.101Z,13.30
2022-11-24T00:33:06.948Z,15.27
2022-11-24T00:35:35.231Z,17.98
2022-11-24T00:38:03.558Z,18.55
2022-11-24T00:40:34.954Z,18.90
2022-11-24T00:43:03.716Z,19.83
2022-11-24T00:45:32.014Z,15.65
2022-11-24T00:48:00.320Z,17.55
2022-11-24T00:50:30.029Z,15.80
2022-11-24T00:52:58.374Z,21.08
2022-11-24T00:55:26.729Z,15.10
2022-11-24T00:57:55.030Z,18.58
2022-11-24T01:00:23.424Z,21.65
2022-11-24T01:02:51.727Z,16.55
2022-11-24T01:05:20.140Z,12.00
2022-11-24T01:07:49.923Z,16.40
2022-11-24T01:10:18.562Z,16.08
2022-11-24T01:12:47.774Z,21.13
2022-11-24T01:15:16.095Z,16.08
2022-11-24T01:17:44.384Z,14.10
2022-11-24T01:20:12.996Z,17.90
2022-11-24T01:22:41.587Z,13.05
2022-11-24T01:25:12.093Z,13.57
2022-11-24T01:27:40.444Z,15.17
2022-11-24T01:30:09.602Z,20.88
2022-11-24T01:32:37.909Z,14.90
2022-11-24T01:35:06.834Z,14.05
2022-11-24T01:37:35.151Z,16.45
2022-11-24T01:40:03.475Z,10.88
2022-11-24T01:42:41.901Z,12.65
2022-11-24T01:45:25.023Z,13.57
2022-11-24T01:47:53.383Z,13.60
2022-11-24T01:50:22.220Z,13.77
2022-11-24T01:52:51.698Z,15.20
2022-11-24T01:55:22.563Z,16.33
2022-11-24T01:57:53.901Z,11.23
2022-11-24T02:00:22.470Z,13.50
2022-11-24T02:02:50.847Z,15.77
2022-11-24T02:05:20.728Z,18.55
2022-11-24T02:07:49.854Z,14.50
2022-11-24T02:10:18.484Z,16.73
2022-11-24T02:15:24.464Z,12.05
2022-11-24T02:17:52.780Z,15.85
2022-11-24T02:20:21.192Z,13.67
2022-11-24T02:22:53.235Z,14.38
2022-11-24T02:25:26.083Z,15.18
2022-11-24T02:27:56.427Z,12.40
2022-11-24T02:30:25.240Z,18.33
2022-11-24T02:32:54.181Z,11.57
2022-11-24T02:35:22.873Z,14.18
2022-11-24T02:37:51.190Z,12.50
2022-11-24T02:40:24.881Z,11.15
2022-11-24T02:42:55.709Z,13.95
2022-11-24T02:45:25.556Z,12.75
2022-11-24T02:47:53.848Z,13.35
2022-11-24T02:50:22.174Z,12.07
2022-11-24T02:52:50.470Z,15.30
2022-11-24T02:55:18.846Z,10.85
2022-11-24T02:57:47.204Z,9.23
2022-11-24T03:00:16.099Z,14.63
2022-11-24T03:02:45.859Z,7.47
2022-11-24T03:05:14.536Z,11.00
2022-11-24T03:07:42.908Z,7.53
2022-11-24T03:10:11.436Z,10.45
2022-11-24T03:12:39.739Z,5.57
2022-11-24T03:15:09.265Z,5.57
2022-11-24T03:17:37.577Z,8.38
2022-11-24T03:20:07.743Z,9.65
2022-11-24T03:22:36.068Z,8.20
2022-11-24T03:25:04.377Z,6.38
2022-11-24T03:27:32.984Z,6.07
2022-11-24T03:30:01.457Z,5.13
2022-11-24T03:32:29.745Z,3.30
2022-11-24T03:34:58.052Z,4.63
2022-11-24T03:37:28.163Z,5.50
2022-11-24T03:39:56.528Z,3.80
2022-11-24T03:42:24.845Z,4.00
2022-11-24T03:44:53.116Z,4.37
2022-11-24T03:47:21.442Z,3.88
2022-11-24T03:49:49.770Z,5.40
2022-11-24T03:52:18.098Z,10.07
2022-11-24T03:54:47.994Z,10.43
2022-11-24T03:57:16.327Z,11.25
2022-11-24T03:59:44.600Z,13.80
2022-11-24T04:02:13.015Z,6.13
2022-11-24T04:04:44.703Z,11.38
2022-11-24T04:07:15.432Z,12.68
2022-11-24T04:09:43.767Z,12.25
2022-11-24T04:12:31.067Z,13.95
2022-11-24T04:14:59.347Z,15.48
2022-11-24T04:17:27.596Z,12.65
2022-11-24T04:19:55.866Z,13.73
2022-11-24T04:22:24.072Z,10.50
2022-11-24T04:24:52.272Z,11.68
2022-11-24T04:27:21.868Z,15.02
2022-11-24T04:29:50.886Z,11.30
2022-11-24T04:32:19.122Z,13.83
2022-11-24T04:34:47.381Z,11.57
2022-11-24T04:37:15.614Z,14.55
2022-11-24T04:39:44.847Z,7.40
2022-11-24T04:42:13.115Z,11.15
2022-11-24T04:44:42.709Z,6.88
2022-11-24T04:47:14.378Z,3.55
2022-11-24T04:49:42.601Z,4.88
2022-11-24T04:52:10.837Z,4.20
2022-11-24T04:54:39.037Z,4.82
2022-11-24T04:57:07.284Z,2.63
2022-11-24T04:59:35.506Z,3.35
2022-11-24T05:02:05.163Z,3.35
2022-11-24T05:04:33.778Z,5.80
2022-11-24T05:07:02.310Z,4.13
2022-11-24T05:09:48.177Z,2.97
2022-11-24T05:12:18.740Z,3.63
2022-11-24T05:14:46.985Z,1.63
2022-11-24T05:17:16.592Z,5.53
2022-11-24T05:19:44.916Z,4.60
2022-11-24T05:22:13.101Z,4.13
2022-11-24T05:24:41.389Z,3.27
2022-11-24T05:27:09.654Z,3.00
2022-11-24T05:29:37.958Z,1.30
2022-11-24T05:32:07.125Z,1.30
2022-11-24T05:34:36.805Z,2.30
2022-11-24T05:37:05.199Z,2.47
2022-11-24T05:39:33.972Z,2.33
2022-11-24T05:42:23.615Z,1.30
2022-11-24T05:44:52.000Z,1.17
2022-11-24T05:47:20.675Z,3.40
2022-11-24T05:49:50.294Z,3.20
2022-11-24T05:52:18.592Z,1.15
2022-11-24T05:54:46.902Z,2.38
2022-11-24T05:57:15.167Z,2.70
2022-11-24T05:59:43.471Z,3.20
2022-11-24T06:02:11.958Z,3.95
2022-11-24T06:04:40.396Z,2.07
2022-11-24T06:07:11.110Z,2.00
2022-11-24T06:09:39.433Z,3.67
2022-11-24T06:12:08.312Z,1.63
2022-11-24T06:14:36.670Z,2.72
2022-11-24T06:17:05.539Z,3.95
2022-11-24T06:19:37.364Z,4.72
2022-11-24T06:22:09.660Z,4.20
2022-11-24T06:24:37.920Z,4.88
2022-11-24T06:27:06.829Z,3.00
2022-11-24T06:29:35.082Z,5.15
2022-11-24T06:32:03.389Z,4.70
2022-11-24T06:34:32.017Z,5.78
2022-11-24T06:37:00.453Z,3.13
2022-11-24T06:39:30.089Z,4.07
2022-11-24T06:41:58.334Z,6.85
2022-11-24T06:44:26.760Z,3.40
2022-11-24T06:46:54.980Z,4.07
2022-11-24T06:49:23.286Z,3.80
2022-11-24T06:51:51.495Z,7.30
2022-11-24T06:54:21.136Z,6.72
2022-11-24T06:56:50.843Z,6.32
2022-11-24T06:59:19.912Z,4.30
2022-11-24T07:01:48.199Z,7.80
2022-11-24T07:04:16.786Z,5.80
2022-11-24T07:06:45.139Z,5.85
2022-11-24T07:09:14.348Z,4.10
2022-11-24T07:11:42.772Z,5.57
2022-11-24T07:14:12.738Z,9.80
2022-11-24T07:16:41.426Z,6.93
2022-11-24T07:19:10.641Z,8.57
2022-11-24T07:21:38.895Z,8.90
2022-11-24T07:24:07.576Z,8.20
2022-11-24T07:26:37.537Z,7.68
2022-11-24T07:29:06.163Z,8.88
2022-11-24T07:31:35.784Z,10.45
2022-11-24T07:34:04.077Z,8.80
2022-11-24T07:36:32.355Z,7.90
2022-11-24T07:39:00.573Z,7.30
2022-11-24T07:41:28.800Z,9.05
2022-11-24T07:43:57.297Z,6.03
2022-11-24T07:46:25.573Z,9.70
2022-11-24T07:48:55.282Z,8.73
2022-11-24T07:51:23.547Z,9.60
2022-11-24T07:53:51.793Z,8.65
2022-11-24T07:56:20.014Z,6.53
2022-11-24T07:58:52.669Z,7.30
2022-11-24T08:01:21.554Z,7.43
2022-11-24T08:03:49.894Z,9.53
2022-11-24T08:06:26.188Z,8.07
2022-11-24T08:08:56.144Z,8.83
2022-11-24T08:11:24.747Z,6.90
2022-11-24T08:13:53.086Z,11.93
2022-11-24T08:16:21.552Z,6.40
2022-11-24T08:18:53.443Z,7.88
2022-11-24T08:21:23.900Z,8.50
2022-11-24T08:23:55.368Z,10.00
2022-11-24T08:26:24.733Z,6.38
2022-11-24T08:28:55.052Z,10.45
2022-11-24T08:31:23.349Z,7.95
2022-11-24T08:33:51.655Z,8.77
2022-11-24T08:36:20.605Z,8.20
2022-11-24T08:38:50.376Z,7.40
2022-11-24T08:41:19.195Z,8.67
2022-11-24T08:43:47.471Z,9.05
2022-11-24T08:46:17.644Z,7.82
2022-11-24T08:48:46.402Z,7.28
2022-11-24T08:51:15.761Z,7.32
2022-11-24T08:53:44.188Z,9.85
2022-11-24T08:56:14.823Z,7.30
2022-11-24T08:58:43.606Z,10.07
2022-11-24T09:01:12.729Z,9.25
2022-11-24T09:03:45.025Z,6.65
2022-11-24T09:06:18.646Z,8.00
2022-11-24T09:08:46.909Z,11.60
2022-11-24T09:11:17.381Z,11.77
2022-11-24T09:13:45.889Z,7.93
2022-11-24T09:16:14.985Z,8.75
2022-11-24T09:18:43.361Z,10.32
2022-11-24T09:21:12.861Z,9.35
2022-11-24T09:23:41.419Z,6.30
2022-11-24T09:26:11.316Z,11.45
2022-11-24T09:28:40.963Z,10.70
2022-11-24T09:31:10.692Z,11.82
2022-11-24T09:33:39.037Z,10.68
2022-11-24T09:36:07.989Z,7.07
2022-11-24T09:38:36.307Z,7.77
2022-11-24T09:41:22.131Z,11.73
2022-11-24T09:43:56.253Z,9.15
2022-11-24T09:46:28.113Z,8.02
2022-11-24T09:48:58.821Z,15.70
2022-11-24T09:51:29.508Z,12.98
2022-11-24T09:53:59.030Z,13.27
2022-11-24T09:56:29.461Z,9.43
2022-11-24T09:59:02.738Z,11.00
2022-11-24T10:01:31.892Z,11.52
2022-11-24T10:04:06.057Z,12.73
2022-11-24T10:06:39.537Z,15.93
2022-11-24T10:09:14.676Z,11.05
2022-11-24T10:11:47.584Z,13.63
2022-11-24T10:14:25.699Z,11.80
2022-11-24T10:16:55.432Z,17.30
2022-11-24T10:19:36.413Z,13.80
2022-11-24T10:22:11.078Z,14.07
2022-11-24T10:24:53.034Z,15.30
2022-11-24T10:27:23.894Z,12.63
2022-11-24T10:29:55.015Z,16.92
2022-11-24T10:32:25.897Z,14.52
2022-11-24T10:34:55.392Z,17.75
2022-11-24T10:37:28.066Z,14.63
2022-11-24T10:40:00.828Z,19.08
2022-11-24T10:42:30.320Z,17.08
2022-11-24T10:45:03.553Z,14.40
2022-11-24T10:47:32.469Z,15.07
2022-11-24T10:50:03.850Z,12.75
2022-11-24T10:52:34.249Z,15.85
2022-11-24T10:55:04.150Z,16.00
2022-11-24T10:57:33.508Z,13.15
2022-11-24T11:00:03.546Z,17.77
2022-11-24T11:02:33.808Z,14.15
2022-11-24T11:05:22.224Z,17.27
2022-11-24T11:07:51.893Z,18.83
2022-11-24T11:10:21.485Z,14.82
2022-11-24T11:12:49.715Z,15.40
2022-11-24T11:15:23.544Z,13.70
2022-11-24T11:17:54.569Z,15.73
2022-11-24T11:20:26.207Z,17.10
2022-11-24T11:22:57.049Z,20.23
2022-11-24T11:25:27.077Z,13.48
2022-11-24T11:28:17.795Z,21.35
2022-11-24T11:31:16.357Z,14.73
2022-11-24T11:34:04.768Z,15.98
2022-11-24T11:36:35.418Z,12.38
2022-11-24T11:39:05.817Z,15.65
2022-11-24T11:41:35.788Z,11.10
2022-11-24T11:44:10.681Z,19.17
2022-11-24T11:46:39.030Z,17.50
2022-11-24T11:49:07.291Z,22.42
2022-11-24T11:51:43.726Z,17.02
2022-11-24T11:54:17.892Z,19.42
2022-11-24T11:56:47.568Z,16.10
2022-11-24T11:59:24.856Z,17.50
2022-11-24T12:02:11.139Z,15.10
2022-11-24T12:04:45.881Z,17.83
2022-11-24T12:07:24.209Z,18.17
2022-11-24T12:09:59.080Z,11.55
2022-11-24T12:12:42.968Z,15.23
2022-11-24T12:15:14.606Z,16.25
2022-11-24T12:17:45.820Z,16.67
2022-11-24T12:20:24.744Z,16.23
2022-11-24T12:22:57.156Z,16.27
2022-11-24T12:25:29.004Z,17.98
2022-11-24T12:28:03.941Z,14.30
2022-11-24T12:30:36.525Z,17.75
2022-11-24T12:33:11.474Z,14.82
2022-11-24T12:35:41.424Z,16.08
2022-11-24T12:38:19.717Z,15.00
2022-11-24T12:41:25.676Z,15.15
2022-11-24T12:43:52.285Z,16.20
2022-11-24T12:46:22.684Z,15.30
2022-11-24T12:48:54.953Z,15.93
2022-11-24T12:51:29.448Z,16.02
2022-11-24T12:53:59.431Z,17.77
2022-11-24T12:56:35.760Z,15.43
2022-11-24T12:59:29.066Z,15.70
2022-11-24T13:02:06.114Z,20.13
2022-11-24T13:04:42.200Z,16.48
2022-11-24T13:07:14.071Z,15.02
2022-11-24T13:13:11.552Z,19.58
2022-11-24T13:19:14.876Z,17.40
2022-11-24T13:21:51.947Z,19.00
2022-11-24T13:24:26.289Z,18.48
2022-11-24T13:26:56.228Z,11.67
2022-11-24T13:29:35.322Z,23.10
2022-11-24T13:32:52.152Z,17.63
2022-11-24T13:35:20.149Z,18.02
2022-11-24T13:37:53.560Z,18.98
2022-11-24T13:40:54.363Z,11.33
2022-11-24T13:43:30.108Z,21.80
2022-11-24T13:45:59.500Z,14.95
2022-11-24T13:49:00.955Z,16.67
2022-11-24T13:51:28.895Z,15.45
2022-11-24T13:54:00.816Z,16.67
2022-11-24T13:56:31.627Z,16.02
2022-11-24T13:59:02.265Z,14.57
2022-11-24T14:01:33.436Z,14.48
2022-11-24T14:04:31.009Z,14.30
2022-11-24T14:07:07.919Z,22.92
2022-11-24T14:09:41.412Z,16.15
2022-11-24T14:12:14.949Z,19.27
2022-11-24T14:14:44.083Z,13.65
2022-11-24T14:17:22.667Z,18.52
2022-11-24T14:19:52.016Z,20.23
2022-11-24T14:22:22.669Z,19.08
2022-11-24T14:24:56.526Z,16.87
2022-11-24T14:27:30.541Z,15.13
2022-11-24T14:30:00.519Z,19.30
2022-11-24T14:32:30.004Z,13.65
2022-11-24T14:34:58.272Z,16.73
2022-11-24T14:37:26.279Z,10.40
2022-11-24T14:39:54.240Z,16.45
2022-11-24T14:42:24.149Z,20.45
2022-11-24T14:44:55.740Z,20.45
2022-11-24T14:47:31.181Z,16.58
2022-11-24T14:50:11.027Z,14.70
2022-11-24T14:52:46.494Z,19.90
2022-11-24T14:55:29.036Z,19.25
2022-11-24T14:57:57.484Z,16.00
2022-11-24T15:00:30.952Z,16.60
2022-11-24T15:03:16.118Z,16.48
2022-11-24T15:05:57.125Z,16.15
2022-11-24T15:08:26.499Z,16.60
2022-11-24T15:11:00.135Z,18.52
2022-11-24T15:13:28.884Z,15.88
2022-11-24T15:16:02.972Z,16.15
2022-11-24T15:18:37.355Z,15.18
2022-11-24T15:21:07.139Z,16.77
2022-11-24T15:23:36.209Z,19.20
2022-11-24T15:26:31.289Z,13.45
2022-11-24T15:29:01.082Z,14.60
2022-11-24T15:31:29.090Z,14.98
2022-11-24T15:33:57.038Z,14.38
2022-11-24T15:36:26.353Z,19.60
2022-11-24T15:38:54.335Z,17.27
2022-11-24T15:41:23.768Z,14.90
2022-11-24T15:43:58.767Z,15.80
2022-11-24T15:46:27.557Z,8.80
2022-11-24T15:48:55.708Z,11.93
2022-11-24T15:51:26.981Z,15.07
2022-11-24T15:54:00.806Z,11.63
2022-11-24T15:56:31.835Z,14.82
2022-11-24T15:58:59.772Z,14.43
2022-11-24T16:01:31.109Z,9.82
2022-11-24T16:03:59.252Z,13.00
2022-11-24T16:06:28.548Z,12.85
2022-11-24T16:08:58.040Z,12.07
2022-11-24T16:11:26.112Z,13.88
2022-11-24T16:13:54.660Z,15.23
2022-11-24T16:16:24.677Z,11.60
2022-11-24T16:18:52.819Z,14.52
2022-11-24T16:21:20.790Z,16.90
2022-11-24T16:23:50.151Z,12.70
2022-11-24T16:26:18.210Z,14.57
2022-11-24T16:28:46.313Z,15.65
2022-11-24T16:31:16.015Z,16.38
2022-11-24T16:33:45.420Z,16.02
2022-11-24T16:36:13.419Z,13.13
2022-11-24T16:38:41.384Z,12.98
2022-11-24T16:41:10.993Z,13.30
2022-11-24T16:43:39.201Z,13.10
2022-11-24T16:46:18.591Z,12.60
2022-11-24T16:48:46.923Z,13.50
2022-11-24T16:51:15.435Z,15.73
2022-11-24T16:53:44.151Z,13.70
2022-11-24T16:56:14.733Z,18.02
2022-11-24T16:58:42.802Z,14.60
2022-11-24T17:01:12.694Z,14.10
2022-11-24T17:03:41.193Z,20.35
2022-11-24T17:06:11.308Z,9.87
2022-11-24T17:08:41.302Z,15.25
2022-11-24T17:11:10.420Z,19.77
2022-11-24T17:13:40.164Z,18.60
2022-11-24T17:16:09.980Z,14.95
2022-11-24T17:18:38.515Z,16.10
2022-11-24T17:21:10.803Z,11.18
2022-11-24T17:23:39.164Z,15.90
2022-11-24T17:26:09.074Z,15.40
2022-11-24T17:28:37.619Z,13.52
2022-11-24T17:31:10.607Z,13.25
2022-11-24T17:33:38.547Z,14.77
2022-11-24T17:36:07.755Z,15.82
2022-11-24T17:38:36.910Z,17.63
2022-11-24T17:41:05.088Z,15.48
2022-11-24T17:43:33.311Z,16.50
2022-11-24T17:46:03.505Z,12.00
2022-11-24T17:48:33.264Z,13.50
2022-11-24T17:51:02.589Z,14.55
2022-11-24T17:53:31.183Z,19.63
2022-11-24T17:56:01.115Z,14.10
2022-11-24T17:58:29.558Z,12.60
2022-11-24T18:00:58.395Z,20.45
2022-11-24T18:03:28.687Z,17.42
2022-11-24T18:05:58.127Z,16.23
2022-11-24T18:08:26.128Z,17.55
2022-11-24T18:10:53.996Z,15.40
2022-11-24T18:13:54.451Z,20.83
2022-11-24T18:16:11.483Z,16.73
2022-11-24T18:18:40.432Z,15.10
2022-11-24T18:21:14.604Z,13.63
2022-11-24T18:23:43.427Z,14.98
2022-11-24T18:26:12.956Z,12.38
2022-11-24T18:28:40.886Z,13.52
2022-11-24T18:31:11.024Z,11.95
2022-11-24T18:33:40.007Z,12.95
2022-11-24T18:36:09.527Z,12.63
2022-11-24T18:38:39.127Z,13.68
2022-11-24T18:41:08.189Z,15.25
2022-11-24T18:43:38.134Z,12.10
2022-11-24T18:46:08.167Z,15.67
2022-11-24T18:48:36.535Z,15.97
2022-11-24T18:51:04.853Z,12.07
2022-11-24T18:53:32.820Z,16.65
2022-11-24T18:56:03.660Z,16.02
2022-11-24T18:58:33.077Z,12.48
2022-11-24T19:01:08.273Z,12.43
2022-11-24T19:03:42.358Z,20.57
2022-11-24T19:06:16.352Z,15.90
2022-11-24T19:08:45.011Z,12.57
2022-11-24T19:11:19.608Z,15.70
2022-11-24T19:13:48.830Z,14.60
2022-11-24T19:16:17.644Z,17.38
2022-11-24T19:18:51.844Z,14.57
2022-11-24T19:21:21.481Z,17.67
2022-11-24T19:23:49.772Z,19.87
2022-11-24T19:26:19.507Z,13.45
2022-11-24T19:28:47.506Z,15.90
2022-11-24T19:31:16.980Z,13.57
2022-11-24T19:33:45.527Z,12.85
2022-11-24T19:36:15.512Z,18.73
2022-11-24T19:38:44.392Z,14.57
2022-11-24T19:41:13.934Z,17.40
2022-11-24T19:43:43.716Z,14.85
2022-11-24T19:46:13.197Z,14.38
2022-11-24T19:48:43.943Z,15.15
2022-11-24T19:51:13.878Z,13.77
2022-11-24T19:53:43.143Z,16.02
2022-11-24T19:56:12.776Z,10.85
2022-11-24T19:58:41.847Z,14.45
2022-11-24T20:01:13.094Z,15.18
2022-11-24T20:03:42.665Z,15.43
2022-11-24T20:06:12.949Z,13.53
2022-11-24T20:08:41.949Z,15.70
2022-11-24T20:11:12.115Z,18.17
2022-11-24T20:13:41.722Z,12.57
2022-11-24T20:16:13.169Z,14.10
2022-11-24T20:18:43.899Z,13.73
2022-11-24T20:21:14.292Z,13.20
2022-11-24T20:23:43.686Z,14.52
2022-11-24T20:26:14.121Z,10.52
2022-11-24T20:28:42.692Z,16.00
2022-11-24T20:31:14.746Z,12.43
2022-11-24T20:33:43.237Z,8.63
2022-11-24T20:36:12.863Z,12.15
2022-11-24T20:38:42.095Z,13.20
2022-11-24T20:41:11.879Z,13.50
2022-11-24T20:43:41.130Z,13.03
2022-11-24T20:46:13.003Z,12.10
2022-11-24T20:48:41.289Z,14.10
2022-11-24T20:51:11.109Z,12.13
2022-11-24T20:53:39.684Z,13.60
2022-11-24T20:56:10.832Z,10.90
2022-11-24T20:58:39.552Z,13.30
2022-11-24T21:01:09.617Z,11.90
2022-11-24T21:03:43.246Z,13.60
2022-11-24T21:06:13.748Z,14.13
2022-11-24T21:08:43.209Z,19.15
2022-11-24T21:11:13.663Z,16.57
2022-11-24T21:13:43.736Z,14.57
2022-11-24T21:16:16.739Z,11.35
2022-11-24T21:18:47.224Z,18.60
2022-11-24T21:21:15.689Z,18.57
2022-11-24T21:23:45.086Z,16.20
2022-11-24T21:26:16.943Z,15.95
2022-11-24T21:28:46.581Z,14.00
2022-11-24T21:31:17.366Z,12.20
2022-11-24T21:33:48.444Z,16.83
2022-11-24T21:36:17.995Z,14.37
2022-11-24T21:38:50.431Z,15.57
2022-11-24T21:41:18.505Z,17.43
2022-11-24T21:43:46.451Z,16.97
2022-11-24T21:46:15.237Z,13.25
2022-11-24T21:48:43.756Z,11.77
2022-11-24T21:51:15.508Z,15.95
2022-11-24T21:53:44.393Z,12.60
2022-11-24T21:56:14.527Z,12.32
2022-11-24T21:58:47.154Z,16.45
2022-11-24T22:01:16.280Z,14.70
2022-11-24T22:03:44.652Z,16.48
2022-11-24T22:06:14.159Z,18.55
2022-11-24T22:08:42.152Z,13.73
2022-11-24T22:11:13.805Z,13.05
2022-11-24T22:13:42.695Z,18.33
2022-11-24T22:16:12.657Z,12.20
2022-11-24T22:18:42.197Z,12.65
2022-11-24T22:21:14.429Z,15.60
2022-11-24T22:23:42.842Z,13.43
2022-11-24T22:26:14.160Z,18.83
2022-11-24T22:28:42.692Z,13.90
2022-11-24T22:31:12.972Z,17.23
2022-11-24T22:33:41.142Z,15.00
2022-11-24T22:36:10.893Z,13.07
2022-11-24T22:38:40.389Z,18.50
2022-11-24T22:41:10.460Z,13.93
2022-11-24T22:43:40.193Z,16.13
2022-11-24T22:46:10.902Z,12.98
2022-11-24T22:48:39.456Z,11.48
2022-11-24T22:51:09.395Z,18.00
2022-11-24T22:53:37.739Z,9.48
2022-11-24T22:56:09.397Z,17.55
2022-11-24T22:58:37.952Z,15.90
2022-11-24T23:01:06.919Z,15.45
2022-11-24T23:03:35.461Z,14.50
2022-11-24T23:06:04.455Z,19.10
2022-11-24T23:08:34.603Z,17.73
2022-11-24T23:11:03.337Z,18.95
2022-11-24T23:13:32.703Z,12.68
2022-11-24T23:16:02.522Z,14.20
2022-11-24T23:18:30.894Z,16.73
2022-11-24T23:21:04.580Z,12.40
2022-11-24T23:23:32.504Z,15.70
2022-11-24T23:26:01.454Z,12.18
2022-11-24T23:28:29.403Z,14.50
2022-11-24T23:31:03.962Z,14.65
2022-11-24T23:33:32.600Z,13.60
2022-11-24T23:36:02.314Z,15.88
2022-11-24T23:38:32.453Z,15.63
2022-11-24T23:41:04.047Z,12.82
2022-11-24T23:43:32.259Z,15.63
2022-11-24T23:46:04.575Z,16.40
2022-11-24T23:48:32.986Z,15.20
2022-11-24T23:51:05.407Z,13.63
2022-11-24T23:53:33.676Z,10.50
2022-11-24T23:56:02.077Z,13.10
2022-11-24T23:58:30.564Z,13.95
